createdAt,value
2018-04-24T00:02:22.052Z,5.00
2018-04-24T00:04:49.491Z,5.80
2018-04-24T00:07:16.935Z,5.57
2018-04-24T00:09:44.472Z,6.03
2018-04-24T00:12:11.832Z,5.23
2018-04-24T00:14:40.056Z,5.90
2018-04-24T00:17:07.517Z,5.63
2018-04-24T00:19:34.967Z,5.17
2018-04-24T00:22:02.427Z,5.73
2018-04-24T00:24:29.874Z,6.10
2018-04-24T00:26:57.319Z,5.87
2018-04-24T00:29:24.746Z,5.67
2018-04-24T00:31:52.957Z,5.40
2018-04-24T00:34:20.406Z,6.43
2018-04-24T00:36:47.847Z,9.90
2018-04-24T00:39:15.275Z,8.60
2018-04-24T00:41:42.722Z,7.43
2018-04-24T00:44:10.146Z,5.45
2018-04-24T00:46:37.579Z,8.10
2018-04-24T00:49:05.014Z,5.90
2018-04-24T00:51:33.239Z,5.00
2018-04-24T00:54:00.668Z,5.80
2018-04-24T00:56:28.094Z,5.40
2018-04-24T00:58:55.525Z,5.97
2018-04-24T01:01:22.968Z,5.83
2018-04-24T01:03:50.432Z,6.07
2018-04-24T01:06:17.859Z,6.32
2018-04-24T01:08:45.283Z,6.10
2018-04-24T01:11:13.488Z,5.60
2018-04-24T01:13:40.939Z,5.50
2018-04-24T01:16:09.135Z,5.20
2018-04-24T01:18:36.574Z,6.23
2018-04-24T01:21:04.016Z,5.90
2018-04-24T01:23:32.219Z,5.70
2018-04-24T01:25:59.655Z,6.00
2018-04-24T01:28:27.109Z,6.05
2018-04-24T01:30:55.304Z,6.60
2018-04-24T01:33:22.756Z,5.83
2018-04-24T01:35:50.189Z,5.40
2018-04-24T01:38:19.311Z,4.80
2018-04-24T01:40:46.741Z,5.47
2018-04-24T01:43:14.959Z,5.17
2018-04-24T01:45:42.405Z,4.50
2018-04-24T01:48:09.830Z,5.50
2018-04-24T01:50:38.027Z,6.05
2018-04-24T01:53:05.538Z,6.27
2018-04-24T01:55:33.670Z,5.20
2018-04-24T01:58:01.109Z,5.80
2018-04-24T02:00:28.550Z,5.33
2018-04-24T02:02:56.778Z,5.37
2018-04-24T02:05:24.226Z,6.20
2018-04-24T02:07:51.647Z,6.33
2018-04-24T02:10:19.876Z,5.57
2018-04-24T02:12:47.307Z,5.47
2018-04-24T02:15:14.749Z,5.40
2018-04-24T02:17:42.182Z,5.30
2018-04-24T02:20:10.392Z,6.27
2018-04-24T02:22:37.855Z,4.70
2018-04-24T02:25:05.287Z,5.17
2018-04-24T02:27:33.462Z,5.40
2018-04-24T02:30:00.899Z,5.50
2018-04-24T02:32:29.097Z,6.03
2018-04-24T02:34:56.579Z,5.10
2018-04-24T02:37:24.004Z,6.80
2018-04-24T02:39:51.487Z,5.20
2018-04-24T02:42:18.926Z,5.83
2018-04-24T02:44:46.408Z,6.37
2018-04-24T02:47:13.834Z,5.20
2018-04-24T02:49:41.266Z,6.13
2018-04-24T02:52:09.455Z,5.57
2018-04-24T02:54:37.662Z,6.10
2018-04-24T02:57:05.101Z,6.00
2018-04-24T02:59:33.307Z,5.13
2018-04-24T03:02:00.742Z,5.40
2018-04-24T03:04:28.200Z,5.23
2018-04-24T03:06:55.631Z,4.78
2018-04-24T03:09:23.844Z,4.50
2018-04-24T03:11:51.301Z,5.90
2018-04-24T03:14:18.761Z,7.20
2018-04-24T03:16:46.196Z,5.43
2018-04-24T03:19:14.398Z,6.90
2018-04-24T03:21:41.825Z,6.70
2018-04-24T03:24:09.261Z,5.53
2018-04-24T03:26:37.479Z,5.20
2018-04-24T03:29:04.902Z,6.10
2018-04-24T03:31:33.128Z,6.13
2018-04-24T03:34:00.550Z,5.90
2018-04-24T03:36:27.984Z,6.47
2018-04-24T03:38:56.195Z,5.77
2018-04-24T03:41:23.646Z,5.80
2018-04-24T03:43:51.086Z,5.97
2018-04-24T03:46:18.524Z,5.63
2018-04-24T03:48:46.715Z,6.20
2018-04-24T03:51:14.155Z,5.40
2018-04-24T03:53:42.359Z,5.32
2018-04-24T03:56:09.798Z,5.67
2018-04-24T03:58:37.991Z,5.90
2018-04-24T04:01:05.440Z,5.10
2018-04-24T04:03:32.876Z,5.40
2018-04-24T04:06:01.087Z,6.00
2018-04-24T04:08:28.515Z,6.40
2018-04-24T04:10:56.719Z,5.33
2018-04-24T04:13:24.165Z,6.20
2018-04-24T04:15:51.642Z,6.53
2018-04-24T04:18:31.747Z,5.30
2018-04-24T04:34:26.974Z,6.00
2018-04-24T04:36:54.418Z,5.00
2018-04-24T04:39:22.628Z,6.90
2018-04-24T04:41:50.076Z,5.83
2018-04-24T04:44:17.512Z,6.00
2018-04-24T04:46:44.955Z,6.50
2018-04-24T04:49:13.163Z,8.40
2018-04-24T04:51:40.600Z,6.90
2018-04-24T04:54:08.795Z,6.65
2018-04-24T04:56:36.230Z,7.30
2018-04-24T04:59:03.663Z,7.23
2018-04-24T05:01:31.095Z,7.03
2018-04-24T05:09:44.678Z,5.50
2018-04-24T05:12:12.127Z,7.30
2018-04-24T05:14:39.571Z,6.87
2018-04-24T05:17:07.132Z,6.10
2018-04-24T05:19:34.570Z,5.70
2018-04-24T05:22:02.027Z,7.10
2018-04-24T05:24:29.457Z,7.53
2018-04-24T05:26:57.659Z,6.80
2018-04-24T05:29:25.102Z,6.50
2018-04-24T05:31:52.551Z,6.97
2018-04-24T05:34:20.742Z,7.07
2018-04-24T05:36:48.182Z,6.87
2018-04-24T05:39:15.629Z,7.40
2018-04-24T05:41:43.854Z,6.00
2018-04-24T05:44:11.288Z,5.87
2018-04-24T05:46:38.734Z,7.17
2018-04-24T05:49:06.196Z,19.23
2018-04-24T05:51:33.643Z,11.63
2018-04-24T05:54:01.082Z,10.70
2018-04-24T05:56:29.283Z,10.53
2018-04-24T05:58:56.749Z,9.77
2018-04-24T06:01:24.189Z,10.30
2018-04-24T06:03:52.395Z,9.30
2018-04-24T06:06:19.833Z,10.43
2018-04-24T06:08:47.282Z,9.03
2018-04-24T06:11:14.713Z,9.20
2018-04-24T06:13:42.941Z,9.97
2018-04-24T06:16:10.364Z,9.63
2018-04-24T06:18:37.811Z,10.05
2018-04-24T06:21:06.018Z,9.73
2018-04-24T06:23:33.458Z,9.37
2018-04-24T06:26:00.898Z,9.70
2018-04-24T06:28:29.174Z,9.70
2018-04-24T06:30:56.555Z,9.93
2018-04-24T06:33:23.999Z,10.57
2018-04-24T06:35:52.271Z,9.50
2018-04-24T06:38:19.639Z,9.50
2018-04-24T06:40:47.086Z,9.60
2018-04-24T06:43:15.306Z,10.30
2018-04-24T06:45:43.533Z,10.00
2018-04-24T06:48:11.743Z,10.73
2018-04-24T06:50:39.202Z,10.10
2018-04-24T06:53:06.667Z,10.30
2018-04-24T06:55:34.106Z,10.20
2018-04-24T06:58:01.548Z,9.93
2018-04-24T07:00:29.010Z,10.40
2018-04-24T07:02:56.441Z,9.80
2018-04-24T07:05:24.663Z,9.53
2018-04-24T07:07:52.100Z,10.63
2018-04-24T07:10:19.551Z,10.90
2018-04-24T07:12:46.998Z,11.47
2018-04-24T07:15:15.207Z,10.05
2018-04-24T07:17:42.646Z,10.33
2018-04-24T07:20:10.079Z,9.60
2018-04-24T07:22:38.303Z,9.03
2018-04-24T07:25:05.751Z,9.83
2018-04-24T07:27:33.196Z,9.97
2018-04-24T07:30:00.641Z,10.80
2018-04-24T07:32:28.324Z,10.40
2018-04-24T07:34:55.789Z,10.47
2018-04-24T07:37:23.248Z,11.15
2018-04-24T07:39:50.799Z,10.63
2018-04-24T07:42:18.232Z,10.03
2018-04-24T07:44:45.690Z,10.03
2018-04-24T07:47:14.809Z,10.50
2018-04-24T07:49:42.304Z,9.60
2018-04-24T07:52:10.699Z,9.70
2018-04-24T07:54:38.147Z,10.50
2018-04-24T07:57:05.607Z,11.03
2018-04-24T07:59:33.059Z,10.50
2018-04-24T08:02:00.526Z,10.40
2018-04-24T08:04:27.968Z,9.87
2018-04-24T08:06:55.672Z,8.73
2018-04-24T08:09:23.913Z,7.77
2018-04-24T08:11:51.359Z,7.23
2018-04-24T08:14:18.788Z,6.13
2018-04-24T08:16:46.237Z,6.23
2018-04-24T08:19:13.676Z,6.13
2018-04-24T08:21:41.116Z,5.85
2018-04-24T08:24:09.326Z,8.83
2018-04-24T08:26:36.772Z,7.33
2018-04-24T08:29:17.224Z,7.93
2018-04-24T08:31:45.427Z,7.63
2018-04-24T08:34:12.876Z,7.50
2018-04-24T08:36:40.333Z,7.17
2018-04-24T08:39:07.767Z,6.80
2018-04-24T08:41:35.965Z,6.43
2018-04-24T08:44:03.405Z,5.83
2018-04-24T08:46:31.615Z,6.90
2018-04-24T08:48:59.052Z,6.90
2018-04-24T08:51:26.512Z,6.73
2018-04-24T08:53:54.066Z,6.12
2018-04-24T08:56:21.535Z,6.83
2018-04-24T08:58:49.698Z,5.53
2018-04-24T09:01:17.139Z,6.93
2018-04-24T09:03:44.563Z,5.27
2018-04-24T09:06:11.998Z,5.43
2018-04-24T09:08:39.464Z,5.37
2018-04-24T09:11:06.887Z,4.87
2018-04-24T09:13:34.333Z,5.03
2018-04-24T09:16:01.768Z,5.00
2018-04-24T09:18:29.978Z,4.90
2018-04-24T09:20:57.440Z,4.50
2018-04-24T09:23:24.884Z,4.90
2018-04-24T09:25:52.349Z,5.50
2018-04-24T09:28:19.775Z,5.20
2018-04-24T09:30:48.128Z,5.30
2018-04-24T09:33:15.567Z,4.80
2018-04-24T09:35:43.002Z,5.23
2018-04-24T09:38:10.459Z,5.20
2018-04-24T09:40:37.892Z,4.70
2018-04-24T09:43:05.353Z,5.83
2018-04-24T09:45:32.780Z,5.10
2018-04-24T09:48:00.218Z,4.43
2018-04-24T09:50:27.648Z,5.70
2018-04-24T09:52:55.091Z,4.83
2018-04-24T09:55:22.516Z,5.93
2018-04-24T09:57:50.735Z,5.47
2018-04-24T10:00:25.095Z,4.47
2018-04-24T10:02:52.531Z,4.63
2018-04-24T10:05:20.460Z,4.93
2018-04-24T10:07:47.939Z,4.90
2018-04-24T10:10:15.347Z,4.90
2018-04-24T10:12:43.555Z,5.30
2018-04-24T10:15:10.975Z,5.00
2018-04-24T10:17:39.198Z,5.73
2018-04-24T10:20:06.631Z,4.70
2018-04-24T10:22:34.100Z,4.77
2018-04-24T10:25:01.541Z,4.80
2018-04-24T10:27:29.000Z,4.60
2018-04-24T10:29:56.436Z,4.63
2018-04-24T10:32:24.635Z,4.47
2018-04-24T10:34:52.068Z,4.75
2018-04-24T10:37:20.275Z,4.90
2018-04-24T10:39:47.704Z,5.20
2018-04-24T10:42:15.906Z,4.23
2018-04-24T10:44:43.342Z,4.30
2018-04-24T10:47:11.530Z,5.00
2018-04-24T10:49:38.970Z,3.73
2018-04-24T10:52:07.168Z,4.10
2018-04-24T10:54:34.620Z,4.80
2018-04-24T10:57:02.070Z,4.40
2018-04-24T10:59:30.280Z,4.73
2018-04-24T11:01:57.714Z,4.33
2018-04-24T11:04:25.150Z,3.77
2018-04-24T11:06:53.359Z,4.20
2018-04-24T11:09:20.790Z,4.60
2018-04-24T11:11:48.258Z,4.50
2018-04-24T11:14:16.439Z,4.30
2018-04-24T11:16:43.896Z,4.53
2018-04-24T11:19:11.340Z,4.93
2018-04-24T11:21:39.543Z,5.07
2018-04-24T11:24:06.984Z,5.00
2018-04-24T11:26:34.419Z,4.23
2018-04-24T11:29:03.335Z,4.20
2018-04-24T11:31:30.787Z,5.57
2018-04-24T11:33:58.227Z,5.10
2018-04-24T11:36:26.432Z,4.90
2018-04-24T11:38:53.880Z,4.90
2018-04-24T11:41:21.394Z,4.40
2018-04-24T11:43:48.858Z,4.73
2018-04-24T11:46:16.978Z,4.60
2018-04-24T11:48:44.635Z,4.70
2018-04-24T11:51:12.087Z,4.37
2018-04-24T11:53:39.530Z,4.63
2018-04-24T11:56:06.970Z,4.37
2018-04-24T11:58:35.205Z,4.83
2018-04-24T12:01:02.643Z,4.17
2018-04-24T12:03:30.094Z,4.45
2018-04-24T12:05:57.554Z,5.10
2018-04-24T12:08:24.991Z,4.30
2018-04-24T12:10:52.671Z,4.10
2018-04-24T12:13:20.136Z,4.30
2018-04-24T12:15:47.637Z,4.30
2018-04-24T12:18:15.024Z,4.40
2018-04-24T12:20:42.465Z,4.60
2018-04-24T12:23:10.757Z,4.10
2018-04-24T12:25:38.975Z,4.32
2018-04-24T12:28:06.403Z,4.60
2018-04-24T12:30:33.913Z,4.83
2018-04-24T12:33:01.367Z,4.87
2018-04-24T12:35:28.807Z,4.10
2018-04-24T12:37:56.242Z,3.70
2018-04-24T12:40:23.692Z,3.60
2018-04-24T12:42:51.131Z,4.13
2018-04-24T12:45:19.357Z,4.70
2018-04-24T12:47:46.799Z,3.87
2018-04-24T12:50:14.239Z,4.07
2018-04-24T12:52:41.692Z,3.83
2018-04-24T12:55:09.187Z,3.80
2018-04-24T12:57:36.842Z,3.63
2018-04-24T13:00:04.282Z,3.63
2018-04-24T13:02:31.871Z,3.60
2018-04-24T13:04:59.303Z,3.87
2018-04-24T13:07:26.775Z,4.17
2018-04-24T13:09:54.221Z,4.90
2018-04-24T13:12:21.659Z,3.73
2018-04-24T13:14:49.090Z,4.00
2018-04-24T13:17:17.323Z,4.30
2018-04-24T13:19:44.766Z,3.90
2018-04-24T13:22:12.230Z,3.65
2018-04-24T13:24:39.658Z,4.10
2018-04-24T13:27:07.115Z,4.27
2018-04-24T13:29:34.546Z,4.00
2018-04-24T13:32:02.763Z,3.83
2018-04-24T13:34:30.199Z,4.30
2018-04-24T13:36:57.669Z,3.77
2018-04-24T13:39:25.107Z,4.30
2018-04-24T13:41:52.559Z,3.50
2018-04-24T13:44:20.743Z,4.30
2018-04-24T13:46:48.185Z,4.40
2018-04-24T13:49:16.375Z,4.10
2018-04-24T13:51:43.830Z,4.20
2018-04-24T13:54:12.320Z,4.10
2018-04-24T13:56:39.763Z,4.60
2018-04-24T13:59:07.983Z,3.70
2018-04-24T14:01:35.422Z,4.10
2018-04-24T14:04:02.869Z,3.87
2018-04-24T14:06:30.300Z,4.32
2018-04-24T14:08:58.538Z,4.10
2018-04-24T14:11:25.979Z,4.13
2018-04-24T14:13:53.652Z,3.63
2018-04-24T14:16:23.329Z,4.30
2018-04-24T14:18:50.770Z,4.10
2018-04-24T14:21:18.978Z,4.03
2018-04-24T14:23:46.410Z,4.47
2018-04-24T14:26:13.855Z,4.27
2018-04-24T14:28:47.504Z,4.40
2018-04-24T14:31:14.940Z,4.10
2018-04-24T14:33:42.375Z,4.13
2018-04-24T14:36:10.583Z,3.83
2018-04-24T14:38:38.029Z,4.35
2018-04-24T14:41:05.459Z,4.30
2018-04-24T14:43:33.667Z,4.30
2018-04-24T14:46:01.114Z,4.00
2018-04-24T14:48:28.561Z,4.17
2018-04-24T14:50:55.994Z,5.35
2018-04-24T14:53:24.205Z,4.00
2018-04-24T14:55:51.650Z,3.93
2018-04-24T14:58:19.154Z,4.23
2018-04-24T15:00:47.319Z,4.20
2018-04-24T15:03:14.833Z,3.80
2018-04-24T15:05:42.206Z,4.33
2018-04-24T15:08:09.648Z,4.10
2018-04-24T15:10:37.095Z,4.60
2018-04-24T15:13:05.299Z,4.40
2018-04-24T15:15:32.752Z,4.00
2018-04-24T15:18:00.206Z,7.20
2018-04-24T15:20:27.670Z,4.00
2018-04-24T15:22:55.575Z,4.23
2018-04-24T15:25:23.027Z,4.57
2018-04-24T15:27:50.469Z,4.57
2018-04-24T15:30:17.923Z,4.20
2018-04-24T15:32:45.365Z,4.47
2018-04-24T15:35:12.928Z,3.70
2018-04-24T15:37:40.360Z,4.43
2018-04-24T15:40:07.816Z,4.17
2018-04-24T15:42:36.012Z,4.50
2018-04-24T15:45:03.475Z,4.70
2018-04-24T15:47:30.914Z,4.20
2018-04-24T15:49:58.371Z,4.70
2018-04-24T15:52:25.802Z,4.60
2018-04-24T15:54:54.075Z,4.60
2018-04-24T15:57:21.451Z,4.40
2018-04-24T15:59:48.902Z,4.20
2018-04-24T16:02:17.187Z,4.40
2018-04-24T16:04:44.562Z,3.97
2018-04-24T16:07:12.026Z,4.93
2018-04-24T16:09:39.492Z,4.70
2018-04-24T16:12:06.923Z,4.73
2018-04-24T16:14:34.363Z,4.03
2018-04-24T16:17:19.272Z,4.53
2018-04-24T16:19:46.740Z,4.40
2018-04-24T16:22:14.180Z,5.40
2018-04-24T16:24:41.653Z,4.70
2018-04-24T16:27:09.088Z,4.93
2018-04-24T16:29:36.629Z,5.00
2018-04-24T16:32:03.960Z,4.20
2018-04-24T16:34:32.184Z,4.80
2018-04-24T16:36:59.628Z,4.60
2018-04-24T16:39:27.059Z,4.60
2018-04-24T16:41:54.523Z,4.50
2018-04-24T16:44:22.735Z,4.40
2018-04-24T16:46:50.186Z,4.17
2018-04-24T16:49:17.625Z,4.43
2018-04-24T16:51:45.081Z,5.07
2018-04-24T16:54:12.506Z,4.50
2018-04-24T16:56:40.715Z,4.50
2018-04-24T16:59:08.151Z,4.33
2018-04-24T17:01:36.359Z,4.35
2018-04-24T17:04:03.788Z,5.07
2018-04-24T17:06:31.243Z,4.30
2018-04-24T17:08:58.676Z,4.70
2018-04-24T17:11:26.172Z,4.03
2018-04-24T17:13:53.555Z,5.27
2018-04-24T17:16:21.004Z,4.73
2018-04-24T17:18:48.851Z,4.50
2018-04-24T17:21:16.287Z,4.67
2018-04-24T17:23:44.492Z,4.30
2018-04-24T17:26:11.936Z,4.37
2018-04-24T17:28:39.372Z,4.60
2018-04-24T17:31:07.590Z,4.53
2018-04-24T17:33:35.021Z,5.47
2018-04-24T17:36:02.463Z,4.90
2018-04-24T17:38:30.658Z,4.90
2018-04-24T17:40:58.174Z,4.10
2018-04-24T17:43:25.543Z,4.10
2018-04-24T17:45:52.974Z,4.83
2018-04-24T17:48:20.446Z,4.60
2018-04-24T17:50:47.886Z,4.50
2018-04-24T17:53:15.328Z,4.47
2018-04-24T17:55:42.755Z,4.40
2018-04-24T17:58:10.591Z,6.57
2018-04-24T18:00:38.798Z,5.50
2018-04-24T18:03:06.238Z,4.97
2018-04-24T18:05:34.458Z,4.87
2018-04-24T18:08:01.950Z,5.20
2018-04-24T18:10:29.399Z,4.20
2018-04-24T18:12:58.343Z,4.80
2018-04-24T18:15:25.784Z,4.73
2018-04-24T18:17:53.989Z,4.40
2018-04-24T18:20:21.577Z,5.30
2018-04-24T18:22:49.019Z,4.83
2018-04-24T18:25:16.567Z,6.40
2018-04-24T18:27:44.022Z,6.43
2018-04-24T18:30:11.442Z,7.20
2018-04-24T18:32:39.655Z,5.47
2018-04-24T18:35:07.182Z,6.00
2018-04-24T18:37:34.635Z,5.70
2018-04-24T18:40:02.830Z,5.40
2018-04-24T18:42:30.295Z,5.30
2018-04-24T18:44:57.715Z,5.83
2018-04-24T18:47:25.970Z,5.30
2018-04-24T18:49:53.379Z,5.13
2018-04-24T18:52:20.823Z,5.27
2018-04-24T18:54:48.457Z,5.00
2018-04-24T18:57:16.695Z,5.30
2018-04-24T18:59:44.133Z,5.90
2018-04-24T19:02:11.576Z,5.30
2018-04-24T19:04:39.013Z,6.10
2018-04-24T19:07:07.219Z,5.50
2018-04-24T19:09:34.660Z,5.20
2018-04-24T19:12:02.087Z,4.90
2018-04-24T19:14:29.518Z,5.87
2018-04-24T19:16:56.962Z,6.15
2018-04-24T19:19:26.221Z,5.80
2018-04-24T19:21:53.657Z,5.80
2018-04-24T19:24:26.748Z,5.17
2018-04-24T19:26:54.967Z,5.47
2018-04-24T19:29:22.404Z,4.90
2018-04-24T19:31:55.450Z,4.70
2018-04-24T19:34:22.909Z,5.57
2018-04-24T19:36:50.342Z,4.70
2018-04-24T19:39:23.552Z,5.23
2018-04-24T19:41:51.025Z,5.27
2018-04-24T19:44:18.466Z,5.40
2018-04-24T19:46:45.912Z,5.20
2018-04-24T19:49:19.077Z,5.40
2018-04-24T19:51:46.428Z,5.80
2018-04-24T19:54:13.856Z,5.50
2018-04-24T19:56:42.061Z,5.87
2018-04-24T19:59:09.636Z,5.40
2018-04-24T20:01:37.075Z,6.03
2018-04-24T20:04:04.603Z,5.33
2018-04-24T20:06:32.825Z,5.50
2018-04-24T20:09:00.276Z,6.00
2018-04-24T20:11:27.715Z,5.30
2018-04-24T20:13:55.916Z,5.53
2018-04-24T20:16:23.391Z,5.33
2018-04-24T20:18:50.831Z,5.33
2018-04-24T20:21:18.291Z,5.40
2018-04-24T20:23:46.523Z,5.57
2018-04-24T20:26:13.931Z,5.80
2018-04-24T20:28:41.365Z,5.57
2018-04-24T20:31:08.825Z,6.00
2018-04-24T20:33:36.261Z,5.50
2018-04-24T20:36:03.687Z,5.63
2018-04-24T20:38:31.121Z,6.27
2018-04-24T20:40:58.548Z,5.70
2018-04-24T20:43:25.995Z,5.83
2018-04-24T20:45:53.457Z,6.13
2018-04-24T20:48:20.878Z,5.37
2018-04-24T20:50:49.088Z,5.67
2018-04-24T20:53:16.546Z,5.63
2018-04-24T20:55:44.735Z,6.07
2018-04-24T20:58:12.171Z,5.50
2018-04-24T21:00:39.670Z,5.67
2018-04-24T21:03:07.799Z,5.60
2018-04-24T21:05:35.239Z,5.60
2018-04-24T21:08:03.434Z,5.23
2018-04-24T21:10:30.923Z,5.60
2018-04-24T21:12:58.366Z,5.70
2018-04-24T21:15:25.799Z,5.53
2018-04-24T21:17:53.239Z,6.12
2018-04-24T21:20:21.467Z,5.40
2018-04-24T21:22:48.898Z,5.70
2018-04-24T21:25:16.322Z,6.27
2018-04-24T21:27:44.529Z,5.60
2018-04-24T21:30:11.986Z,5.73
2018-04-24T21:32:39.430Z,6.80
2018-04-24T21:35:07.866Z,6.60
2018-04-24T21:37:35.274Z,5.70
2018-04-24T21:40:02.715Z,6.27
2018-04-24T21:42:30.911Z,5.47
2018-04-24T21:44:58.358Z,6.07
2018-04-24T21:47:26.559Z,6.37
2018-04-24T21:49:53.994Z,5.77
2018-04-24T21:52:21.449Z,6.70
2018-04-24T21:54:49.639Z,6.80
2018-04-24T21:57:17.088Z,5.70
2018-04-24T21:59:44.511Z,6.60
2018-04-24T22:02:12.720Z,6.32
2018-04-24T22:04:40.160Z,6.87
2018-04-24T22:07:08.378Z,6.27
2018-04-24T22:09:35.807Z,6.30
2018-04-24T22:12:03.251Z,5.60
2018-04-24T22:14:30.703Z,6.13
2018-04-24T22:16:58.920Z,6.33
2018-04-24T22:19:26.348Z,5.85
2018-04-24T22:21:53.790Z,6.90
2018-04-24T22:24:21.979Z,6.50
2018-04-24T22:26:49.416Z,6.73
2018-04-24T22:29:17.639Z,5.70
2018-04-24T22:31:45.073Z,6.90
2018-04-24T22:34:12.529Z,6.53
2018-04-24T22:36:39.951Z,6.60
2018-04-24T22:39:07.386Z,5.83
2018-04-24T22:41:34.810Z,6.50
2018-04-24T22:44:02.248Z,6.50
2018-04-24T22:46:30.451Z,7.20
2018-04-24T22:48:57.891Z,6.77
2018-04-24T22:51:25.319Z,6.50
2018-04-24T22:53:53.539Z,6.90
2018-04-24T22:56:20.978Z,7.17
2018-04-24T22:58:48.425Z,6.90
2018-04-24T23:01:16.612Z,7.30
2018-04-24T23:03:44.050Z,6.93
2018-04-24T23:06:12.258Z,6.40
2018-04-24T23:08:41.335Z,6.60
2018-04-24T23:11:21.636Z,6.40
2018-04-24T23:14:00.848Z,6.63
2018-04-24T23:16:40.323Z,7.00
2018-04-24T23:19:19.633Z,6.43
2018-04-24T23:21:46.649Z,6.60
2018-04-24T23:24:14.080Z,6.60
2018-04-24T23:26:42.271Z,6.80
2018-04-24T23:29:09.709Z,5.93
2018-04-24T23:31:37.903Z,6.00
2018-04-24T23:34:05.340Z,6.87
2018-04-24T23:36:33.573Z,6.50
2018-04-24T23:39:01.028Z,6.82
2018-04-24T23:41:28.465Z,7.20
2018-04-24T23:43:55.907Z,6.13
2018-04-24T23:46:23.359Z,6.90
2018-04-24T23:48:51.559Z,6.90
2018-04-24T23:51:18.991Z,6.60
2018-04-24T23:53:46.426Z,6.83
2018-04-24T23:56:13.863Z,6.50
2018-04-24T23:58:41.306Z,7.00
